Time;durP1;ratioP1;P1;durP2;ratioP2;P2;SDS_P1;SDS_P2;PMS_P1;PMS_P2;Temp;Humidity;BMP_temperature;BMP_pressure;BME280_temperature;BME280_humidity;BME280_pressure;Samples;Min_cycle;Max_cycle;Signal;HPM_P1;HPM_P2
2022/06/27 00:01:32;;;;;;;;;;;;;;;20.07;100.00;100076.78;5071843;28;20375;-64
2022/06/27 00:03:57;;;;;;;;;;;;;;;20.11;100.00;100032.41;5071508;28;19961;-63
2022/06/27 00:06:23;;;;;;;;;;;;;;;20.18;100.00;99979.66;5071285;28;19946;-64
2022/06/27 00:08:48;;;;;;;;;;;;;;;20.24;100.00;99903.63;5071156;28;19973;-64
2022/06/27 00:11:14;;;;;;;;;;;;;;;20.32;100.00;99798.53;5071337;28;20436;-64
2022/06/27 00:13:40;;;;;;;;;;;;;;;20.28;100.00;99721.41;5070879;28;20012;-64
2022/06/27 00:16:05;;;;;;;;;;;;;;;20.16;100.00;99678.28;5071088;28;20025;-64
2022/06/27 00:18:31;;;;;;;;;;;;;;;20.03;100.00;99624.31;5071431;28;19930;-64
2022/06/27 00:20:56;;;;;;;;;;;;;;;19.90;100.00;99601.09;5071499;28;19954;-64
2022/06/27 00:23:21;;;;;;;;;;;;;;;19.84;100.00;99624.00;5070508;28;19992;-64
2022/06/27 00:25:47;;;;;;;;;;;;;;;19.78;100.00;99646.09;5069840;28;19967;-64
2022/06/27 00:28:12;;;;;;;;;;;;;;;19.76;100.00;99685.81;5069668;28;19929;-64
2022/06/27 00:30:37;;;;;;;;;;;;;;;19.76;100.00;99723.59;5068979;28;19927;-64
2022/06/27 00:33:03;;;;;;;;;;;;;;;19.78;100.00;99735.16;5068926;28;19933;-64
2022/06/27 00:35:28;;;;;;;;;;;;;;;19.87;100.00;99742.53;5073431;28;19933;-65
2022/06/27 00:37:53;;;;;;;;;;;;;;;19.89;100.00;99770.31;5073384;28;19925;-65
2022/06/27 00:40:18;;;;;;;;;;;;;;;19.89;100.00;99791.91;5073486;28;20030;-65
2022/06/27 00:42:44;;;;;;;;;;;;;;;19.88;100.00;99809.09;5072812;28;20051;-65
2022/06/27 00:45:09;;;;;;;;;;;;;;;19.78;100.00;99817.97;5073266;28;19973;-65
2022/06/27 00:47:34;;;;;;;;;;;;;;;19.79;100.00;99843.97;5074994;28;19931;-65
2022/06/27 00:50:00;;;;;;;;;;;;;;;19.76;100.00;99847.75;5075009;28;19931;-65
2022/06/27 00:52:26;;;;;;;;;;;;;;;19.81;100.00;99840.19;5075050;28;19938;-65
2022/06/27 00:54:51;;;;;;;;;;;;;;;19.79;100.00;99830.47;5074628;28;20047;-65
2022/06/27 00:57:17;;;;;;;;;;;;;;;19.72;100.00;99845.41;5074848;28;20097;-65
2022/06/27 00:59:43;;;;;;;;;;;;;;;19.67;100.00;99856.50;5074763;28;19991;-65
2022/06/27 01:02:08;;;;;;;;;;;;;;;19.69;100.00;99843.78;5074892;28;19922;-65
2022/06/27 01:04:37;;;;;;;;;;;;;;;19.69;100.00;99851.88;5072177;28;19958;-65
2022/06/27 01:07:04;;;;;;;;;;;;;;;19.67;100.00;99862.78;5073239;28;20004;-65
2022/06/27 01:09:29;;;;;;;;;;;;;;;19.67;100.00;99864.59;5073207;28;20599;-65
2022/06/27 01:11:55;;;;;;;;;;;;;;;19.56;100.00;99888.81;5074482;28;19937;-65
2022/06/27 01:14:20;;;;;;;;;;;;;;;19.53;100.00;99899.81;5074316;28;19921;-65
2022/06/27 01:16:45;;;;;;;;;;;;;;;19.53;100.00;99899.81;5074190;28;20022;-65
2022/06/27 01:19:12;;;;;;;;;;;;;;;19.51;100.00;99902.63;5074457;28;20003;-65
2022/06/27 01:21:47;;;;;;;;;;;;;;;19.54;100.00;99897.00;5073575;28;19931;-65
2022/06/27 01:24:13;;;;;;;;;;;;;;;19.61;100.00;99892.03;5072880;28;20061;-65
2022/06/27 01:26:38;;;;;;;;;;;;;;;19.61;100.00;99881.25;5072034;28;20082;-65
2022/06/27 01:29:03;;;;;;;;;;;;;;;19.64;100.00;99864.84;5072926;28;19931;-65
2022/06/27 01:31:30;;;;;;;;;;;;;;;19.68;100.00;99866.34;5073005;28;20000;-65
2022/06/27 01:33:55;;;;;;;;;;;;;;;19.68;100.00;99866.34;5072872;28;20007;-65
2022/06/27 01:39:05;;;;;;;;;;;;;;;19.75;100.00;99835.25;5074070;28;20437;-65
2022/06/27 01:41:30;;;;;;;;;;;;;;;19.78;100.00;99818.81;5074220;28;19937;-65
2022/06/27 01:43:55;;;;;;;;;;;;;;;19.79;100.00;99811.56;5073937;28;19956;-65
2022/06/27 01:46:21;;;;;;;;;;;;;;;19.80;100.00;99816.88;5072919;28;20326;-65
2022/06/27 01:48:46;;;;;;;;;;;;;;;19.82;100.00;99809.50;5074043;28;19934;-65
2022/06/27 01:51:11;;;;;;;;;;;;;;;19.74;100.00;99833.50;5073988;28;20070;-65
2022/06/27 01:53:37;;;;;;;;;;;;;;;19.73;100.00;99845.28;5073478;28;19926;-65
2022/06/27 01:56:03;;;;;;;;;;;;;;;19.68;100.00;99844.75;5073726;28;19940;-65
2022/06/27 01:58:28;;;;;;;;;;;;;;;19.66;100.00;99841.31;5073043;28;19931;-65
2022/06/27 02:00:54;;;;;;;;;;;;;;;19.67;100.00;99826.81;5073568;28;20433;-65
2022/06/27 02:03:19;;;;;;;;;;;;;;;19.64;100.00;99840.53;5073583;28;20407;-65
2022/06/27 02:05:45;;;;;;;;;;;;;;;19.63;100.00;99841.53;5073628;28;19951;-65
2022/06/27 02:08:11;;;;;;;;;;;;;;;19.64;100.00;99832.44;5073465;28;20347;-65
2022/06/27 02:10:36;;;;;;;;;;;;;;;19.68;100.00;99823.16;5072978;28;19995;-65
2022/06/27 02:13:02;;;;;;;;;;;;;;;19.65;100.00;99821.53;5073435;28;19927;-65
2022/06/27 02:15:28;;;;;;;;;;;;;;;19.72;100.00;99832.75;5073031;28;19978;-65
2022/06/27 02:17:53;;;;;;;;;;;;;;;19.74;100.00;99814.63;5073295;28;19926;-65
2022/06/27 02:20:18;;;;;;;;;;;;;;;19.80;100.00;99802.53;5073470;28;19935;-65
2022/06/27 02:22:44;;;;;;;;;;;;;;;19.78;100.00;99832.31;5073387;28;20026;-65
2022/06/27 02:25:10;;;;;;;;;;;;;;;19.71;100.00;99841.84;5073099;28;19947;-65
2022/06/27 02:27:36;;;;;;;;;;;;;;;19.72;100.00;99818.41;5073093;28;20000;-65
2022/06/27 02:30:02;;;;;;;;;;;;;;;19.76;100.00;99819.91;5073391;28;19950;-65
2022/06/27 02:32:28;;;;;;;;;;;;;;;19.74;100.00;99841.59;5072936;28;20268;-65
2022/06/27 02:34:55;;;;;;;;;;;;;;;19.75;100.00;99854.16;5072486;28;19928;-65
2022/06/27 02:37:20;;;;;;;;;;;;;;;19.72;100.00;99857.03;5072862;28;19938;-65
2022/06/27 02:39:47;;;;;;;;;;;;;;;19.70;100.00;99842.81;5073008;28;19931;-65
2022/06/27 02:42:13;;;;;;;;;;;;;;;19.76;100.00;99839.66;5073075;28;19942;-65
2022/06/27 02:44:39;;;;;;;;;;;;;;;19.78;100.00;99835.03;5072221;28;20093;-66
2022/06/27 02:47:04;;;;;;;;;;;;;;;19.80;100.00;99838.47;5072936;28;19962;-66
2022/06/27 02:49:30;;;;;;;;;;;;;;;19.79;100.00;99828.63;5072504;28;19937;-66
2022/06/27 02:51:55;;;;;;;;;;;;;;;19.79;100.00;99820.53;5072687;28;19935;-66
2022/06/27 02:54:24;;;;;;;;;;;;;;;19.82;100.00;99798.72;5072084;28;19962;-66
2022/06/27 02:56:56;;;;;;;;;;;;;;;19.83;100.00;99789.66;5072498;28;19938;-66
2022/06/27 02:59:28;;;;;;;;;;;;;;;19.86;100.00;99811.03;5072239;28;19932;-65
2022/06/27 03:01:56;;;;;;;;;;;;;;;19.90;100.00;99817.06;5072577;28;19930;-65
2022/06/27 03:04:21;;;;;;;;;;;;;;;19.90;100.00;99796.31;5071406;28;19945;-65
2022/06/27 03:06:49;;;;;;;;;;;;;;;19.91;100.00;99792.66;5072536;28;19958;-65
2022/06/27 03:09:15;;;;;;;;;;;;;;;19.90;100.00;99812.50;5072396;28;19935;-65
2022/06/27 03:11:40;;;;;;;;;;;;;;;19.85;100.00;99814.69;5072161;28;19930;-65
2022/06/27 03:14:06;;;;;;;;;;;;;;;19.82;100.00;99833.81;5071898;28;19958;-65
2022/06/27 03:16:32;;;;;;;;;;;;;;;19.84;100.00;99825.59;5072374;28;19985;-65
2022/06/27 03:18:57;;;;;;;;;;;;;;;19.87;100.00;99823.53;5072260;28;19952;-65
2022/06/27 03:21:23;;;;;;;;;;;;;;;19.89;100.00;99818.91;5072035;28;19937;-65
2022/06/27 03:23:48;;;;;;;;;;;;;;;19.92;100.00;99818.66;5071924;28;20639;-65
2022/06/27 03:26:14;;;;;;;;;;;;;;;19.91;100.00;99814.25;5072304;28;19956;-65
2022/06/27 03:28:39;;;;;;;;;;;;;;;19.97;100.00;99819.19;5072146;28;19935;-65
2022/06/27 03:31:05;;;;;;;;;;;;;;;20.02;100.00;99821.53;5072036;28;19975;-65
2022/06/27 03:33:32;;;;;;;;;;;;;;;20.04;100.00;99825.00;5071282;28;19935;-65
2022/06/27 03:35:57;;;;;;;;;;;;;;;20.05;100.00;99835.69;5070049;28;20472;-65
2022/06/27 03:38:22;;;;;;;;;;;;;;;20.10;100.00;99797.56;5069981;28;20025;-65
2022/06/27 03:40:47;;;;;;;;;;;;;;;20.13;100.00;99803.56;5070110;28;19930;-65
2022/06/27 03:43:13;;;;;;;;;;;;;;;20.11;100.00;99828.97;5069690;28;19947;-65
2022/06/27 03:45:38;;;;;;;;;;;;;;;20.09;100.00;99826.38;5070042;28;19939;-65
2022/06/27 03:48:04;;;;;;;;;;;;;;;20.13;100.00;99821.63;5071094;28;20062;-65
2022/06/27 03:50:29;;;;;;;;;;;;;;;20.11;100.00;99820.88;5071657;28;19936;-65
2022/06/27 03:52:55;;;;;;;;;;;;;;;20.10;100.00;99820.00;5071550;28;20398;-65
2022/06/27 03:55:21;;;;;;;;;;;;;;;20.05;100.00;99811.38;5071433;28;19952;-65
2022/06/27 03:57:47;;;;;;;;;;;;;;;20.02;100.00;99817.00;5071782;28;20428;-65
2022/06/27 04:00:13;;;;;;;;;;;;;;;19.98;100.00;99831.72;5071519;28;19938;-65
2022/06/27 04:02:38;;;;;;;;;;;;;;;19.97;100.00;99846.19;5071091;28;20316;-65
2022/06/27 04:05:04;;;;;;;;;;;;;;;19.96;100.00;99841.78;5070463;28;19983;-65
2022/06/27 04:07:29;;;;;;;;;;;;;;;19.95;100.00;99840.03;5071494;28;20471;-65
2022/06/27 04:09:55;;;;;;;;;;;;;;;19.99;100.00;99857.75;5070879;28;19933;-65
2022/06/27 04:12:20;;;;;;;;;;;;;;;20.01;100.00;99869.31;5071473;28;19930;-65
2022/06/27 04:14:46;;;;;;;;;;;;;;;20.10;100.00;99879.41;5071386;28;20008;-65
2022/06/27 04:17:11;;;;;;;;;;;;;;;20.16;100.00;99889.81;5071316;28;19926;-65
2022/06/27 04:19:37;;;;;;;;;;;;;;;20.22;100.00;99883.94;5071000;28;19963;-65
2022/06/27 04:22:02;;;;;;;;;;;;;;;20.27;100.00;99891.69;5071421;28;19935;-65
2022/06/27 04:24:27;;;;;;;;;;;;;;;20.26;100.00;99881.88;5070626;28;19952;-65
2022/06/27 04:26:53;;;;;;;;;;;;;;;20.29;100.00;99870.84;5071514;28;19982;-65
2022/06/27 04:29:18;;;;;;;;;;;;;;;20.30;100.00;99848.25;5071159;28;19930;-65
2022/06/27 04:31:43;;;;;;;;;;;;;;;20.31;100.00;99840.03;5070699;28;20443;-65
2022/06/27 04:34:12;;;;;;;;;;;;;;;20.29;100.00;99833.91;5070738;28;19928;-65
2022/06/27 04:36:37;;;;;;;;;;;;;;;20.29;100.00;99850.09;5071401;28;20452;-65
2022/06/27 04:39:03;;;;;;;;;;;;;;;20.25;100.00;99889.13;5071038;28;19922;-65
2022/06/27 04:41:28;;;;;;;;;;;;;;;20.25;100.00;99913.44;5071179;28;19933;-65
2022/06/27 04:43:54;;;;;;;;;;;;;;;20.28;100.00;99907.78;5071062;28;19946;-65
2022/06/27 04:46:20;;;;;;;;;;;;;;;20.33;100.00;99883.16;5070897;28;19937;-65
2022/06/27 04:48:45;;;;;;;;;;;;;;;20.40;100.00;99866.38;5070267;28;20029;-65
2022/06/27 04:51:11;;;;;;;;;;;;;;;20.43;100.00;99886.88;5071093;28;20017;-65
2022/06/27 04:53:38;;;;;;;;;;;;;;;20.45;100.00;99912.81;5070700;28;19986;-65
2022/06/27 04:56:04;;;;;;;;;;;;;;;20.47;100.00;99918.97;5070934;28;19943;-65
2022/06/27 04:58:30;;;;;;;;;;;;;;;20.52;100.00;99902.41;5071029;28;20338;-65
2022/06/27 05:00:55;;;;;;;;;;;;;;;20.56;100.00;99902.06;5070028;28;20025;-65
2022/06/27 05:03:23;;;;;;;;;;;;;;;20.59;100.00;99909.94;5069970;28;19948;-65
2022/06/27 05:05:50;;;;;;;;;;;;;;;20.64;100.00;99923.13;5070480;28;19949;-65
2022/06/27 05:08:15;;;;;;;;;;;;;;;20.66;100.00;99927.44;5053049;28;19940;-65
2022/06/27 05:10:40;;;;;;;;;;;;;;;20.67;100.00;99944.50;5070802;28;20027;-65
2022/06/27 05:13:05;;;;;;;;;;;;;;;20.65;100.00;99962.69;5070894;28;19931;-65
2022/06/27 05:15:31;;;;;;;;;;;;;;;20.65;100.00;99952.75;5070862;28;19938;-66
2022/06/27 05:17:59;;;;;;;;;;;;;;;20.68;100.00;99947.09;5070697;28;19930;-66
2022/06/27 05:20:24;;;;;;;;;;;;;;;20.71;100.00;99951.41;5071330;28;19934;-66
2022/06/27 05:22:49;;;;;;;;;;;;;;;20.72;100.00;99956.69;5074587;28;19931;-65
2022/06/27 05:25:15;;;;;;;;;;;;;;;20.73;100.00;99961.13;5074349;28;19937;-65
2022/06/27 05:27:40;;;;;;;;;;;;;;;20.73;100.00;99950.31;5074276;28;20386;-65
2022/06/27 05:30:06;;;;;;;;;;;;;;;20.73;100.00;99931.41;5074207;28;19966;-65
2022/06/27 05:32:32;;;;;;;;;;;;;;;20.72;100.00;99937.75;5074139;28;19929;-65
2022/06/27 05:34:57;;;;;;;;;;;;;;;20.68;100.00;99963.31;5074162;28;19944;-65
2022/06/27 05:37:22;;;;;;;;;;;;;;;20.72;100.00;99959.41;5074269;28;20014;-65
2022/06/27 05:39:48;;;;;;;;;;;;;;;20.82;100.00;99954.19;5072111;28;20050;-65
2022/06/27 05:42:13;;;;;;;;;;;;;;;20.85;100.00;99959.34;5072555;28;19976;-65
2022/06/27 05:44:38;;;;;;;;;;;;;;;20.92;100.00;99963.31;5072119;28;19945;-65
2022/06/27 05:47:04;;;;;;;;;;;;;;;20.95;100.00;99966.63;5071874;28;19951;-65
2022/06/27 05:49:30;;;;;;;;;;;;;;;21.03;100.00;99989.56;5072246;28;19932;-65
2022/06/27 05:51:59;;;;;;;;;;;;;;;21.05;100.00;99995.75;5072211;28;19933;-65
2022/06/27 05:54:25;;;;;;;;;;;;;;;21.08;100.00;100009.03;5071869;28;19963;-65
2022/06/27 05:56:51;;;;;;;;;;;;;;;21.14;100.00;100004.00;5072886;28;19942;-65
2022/06/27 05:59:17;;;;;;;;;;;;;;;21.07;100.00;99980.25;5072774;28;19930;-65
2022/06/27 06:01:43;;;;;;;;;;;;;;;21.11;100.00;99974.50;5072495;28;19928;-65
2022/06/27 06:04:08;;;;;;;;;;;;;;;21.13;100.00;99982.50;5072768;28;19954;-65
2022/06/27 06:06:34;;;;;;;;;;;;;;;21.15;100.00;99977.84;5070613;28;19951;-65
2022/06/27 06:09:01;;;;;;;;;;;;;;;21.12;100.00;99978.91;5073021;28;19931;-65
2022/06/27 06:11:27;;;;;;;;;;;;;;;21.11;100.00;99992.56;5073488;28;19971;-65
2022/06/27 06:13:53;;;;;;;;;;;;;;;21.11;100.00;99992.56;5073484;28;19984;-65
2022/06/27 06:16:19;;;;;;;;;;;;;;;21.09;100.00;99994.53;5073251;28;20477;-65
2022/06/27 06:18:47;;;;;;;;;;;;;;;21.04;100.00;99999.44;5073570;28;19934;-65
2022/06/27 06:21:12;;;;;;;;;;;;;;;21.02;100.00;99993.28;5072976;28;20343;-65
2022/06/27 06:23:38;;;;;;;;;;;;;;;21.04;100.00;99994.03;5073195;28;19993;-65
2022/06/27 06:26:05;;;;;;;;;;;;;;;21.02;100.00;100013.03;5073245;28;19976;-65
2022/06/27 06:28:32;;;;;;;;;;;;;;;21.01;100.00;100021.28;5073314;28;19941;-65
2022/06/27 06:30:57;;;;;;;;;;;;;;;21.04;100.00;100013.81;5072472;28;19924;-65
2022/06/27 06:33:23;;;;;;;;;;;;;;;21.07;100.00;100012.72;5073175;28;19937;-65
2022/06/27 06:35:48;;;;;;;;;;;;;;;21.08;100.00;100009.91;5073133;28;19938;-65
2022/06/27 06:38:14;;;;;;;;;;;;;;;21.07;100.00;100007.31;5072374;28;20013;-65
2022/06/27 06:40:39;;;;;;;;;;;;;;;20.98;100.00;100011.56;5072767;28;20019;-65
2022/06/27 06:43:04;;;;;;;;;;;;;;;21.00;100.00;99996.09;5072844;28;19933;-65
2022/06/27 06:45:30;;;;;;;;;;;;;;;21.06;100.00;99970.41;5072522;28;19931;-65
2022/06/27 06:47:56;;;;;;;;;;;;;;;21.15;100.00;99972.41;5072900;28;20385;-65
2022/06/27 06:50:21;;;;;;;;;;;;;;;21.31;100.00;99986.50;5068644;28;19937;-65
2022/06/27 06:52:50;;;;;;;;;;;;;;;21.41;100.00;99990.22;5065197;28;19949;-65
2022/06/27 06:55:17;;;;;;;;;;;;;;;21.49;100.00;99995.91;5071824;28;19997;-65
2022/06/27 06:57:43;;;;;;;;;;;;;;;21.48;100.00;100013.13;5072790;28;20051;-65
2022/06/27 07:00:09;;;;;;;;;;;;;;;21.44;100.00;100020.63;5072268;28;19928;-65
2022/06/27 07:02:35;;;;;;;;;;;;;;;21.46;100.00;100032.19;5072968;28;19969;-65
2022/06/27 07:05:02;;;;;;;;;;;;;;;21.41;100.00;100045.22;5072320;28;19993;-65
2022/06/27 07:07:28;;;;;;;;;;;;;;;21.32;100.00;100061.25;5071298;28;19985;-65
2022/06/27 07:09:53;;;;;;;;;;;;;;;21.27;100.00;100069.75;5072486;28;20370;-65
2022/06/27 07:12:18;;;;;;;;;;;;;;;21.21;100.00;100066.63;5072222;28;19972;-65
2022/06/27 07:14:45;;;;;;;;;;;;;;;21.17;100.00;100063.28;5071806;28;20395;-65
2022/06/27 07:17:10;;;;;;;;;;;;;;;21.20;100.00;100051.41;5072059;28;19938;-65
2022/06/27 07:19:38;;;;;;;;;;;;;;;21.34;100.00;100043.06;5072358;28;19923;-65
2022/06/27 07:22:04;;;;;;;;;;;;;;;21.37;100.00;100056.38;5071922;28;19976;-64
2022/06/27 07:24:30;;;;;;;;;;;;;;;21.46;100.00;100058.38;5072267;28;19955;-64
2022/06/27 07:26:57;;;;;;;;;;;;;;;21.48;100.00;100062.69;5065494;28;19941;-64
2022/06/27 07:29:22;;;;;;;;;;;;;;;21.50;100.00;100054.47;5052071;28;19929;-64
2022/06/27 07:31:48;;;;;;;;;;;;;;;21.40;100.00;100053.47;5051643;28;19945;-64
2022/06/27 07:34:17;;;;;;;;;;;;;;;21.35;100.00;100042.13;5051982;28;19927;-64
2022/06/27 07:36:43;;;;;;;;;;;;;;;21.40;100.00;100039.94;5064218;28;19933;-64
2022/06/27 07:39:08;;;;;;;;;;;;;;;21.38;100.00;100050.88;5071985;28;19931;-65
2022/06/27 07:41:33;;;;;;;;;;;;;;;21.38;100.00;100053.56;5071645;28;20344;-65
2022/06/27 07:44:00;;;;;;;;;;;;;;;21.41;100.00;100038.94;5071004;28;19967;-65
2022/06/27 07:46:27;;;;;;;;;;;;;;;21.43;100.00;100031.56;5071642;28;19939;-65
2022/06/27 07:48:52;;;;;;;;;;;;;;;21.53;100.00;100027.16;5071793;28;19937;-65
2022/06/27 07:51:19;;;;;;;;;;;;;;;21.59;100.00;100032.09;5070942;28;20310;-65
2022/06/27 07:53:47;;;;;;;;;;;;;;;21.67;100.00;100035.06;5071494;28;20009;-65
2022/06/27 07:56:13;;;;;;;;;;;;;;;21.81;100.00;100043.03;5071543;28;19936;-65
2022/06/27 07:58:39;;;;;;;;;;;;;;;22.06;100.00;100046.38;5071366;28;19926;-65
2022/06/27 08:01:16;;;;;;;;;;;;;;;22.59;100.00;100061.09;5072312;28;19935;-65
2022/06/27 08:03:43;;;;;;;;;;;;;;;22.68;100.00;100076.63;5071426;28;19946;-65
2022/06/27 08:06:34;;;;;;;;;;;;;;;22.74;100.00;100067.97;5071138;28;20042;-65
2022/06/27 08:09:02;;;;;;;;;;;;;;;22.60;100.00;100068.22;5067809;28;19926;-65
2022/06/27 08:11:28;;;;;;;;;;;;;;;22.35;100.00;100079.31;5072002;28;19974;-65
2022/06/27 08:13:55;;;;;;;;;;;;;;;22.10;100.00;100099.38;5072195;28;19928;-65
2022/06/27 08:16:22;;;;;;;;;;;;;;;21.96;100.00;100095.97;5071130;28;19932;-65
2022/06/27 08:18:48;;;;;;;;;;;;;;;21.88;100.00;100088.47;5071253;28;19945;-65
2022/06/27 08:21:16;;;;;;;;;;;;;;;21.93;100.00;100071.84;5071398;28;20299;-65
2022/06/27 08:23:42;;;;;;;;;;;;;;;22.08;100.00;100057.09;5071528;28;20392;-65
2022/06/27 08:26:08;;;;;;;;;;;;;;;22.28;100.00;100053.69;5070204;28;19941;-65
2022/06/27 08:28:37;;;;;;;;;;;;;;;22.51;100.00;100059.94;5049933;28;20707;-65
2022/06/27 08:31:10;;;;;;;;;;;;;;;22.68;100.00;100071.22;5049759;28;20068;-65
2022/06/27 08:33:35;;;;;;;;;;;;;;;22.72;100.00;100069.09;5049972;28;19931;-65
2022/06/27 08:36:02;;;;;;;;;;;;;;;22.61;100.00;100075.41;5055907;28;20306;-65
2022/06/27 08:38:28;;;;;;;;;;;;;;;22.51;100.00;100078.94;5069485;28;19934;-65
2022/06/27 08:40:54;;;;;;;;;;;;;;;22.45;100.00;100084.84;5070898;28;19939;-65
2022/06/27 08:43:20;;;;;;;;;;;;;;;22.27;100.00;100094.44;5070847;28;19967;-65
2022/06/27 08:45:47;;;;;;;;;;;;;;;22.19;100.00;100109.47;5070574;28;19988;-65
2022/06/27 08:48:13;;;;;;;;;;;;;;;22.16;100.00;100104.28;5071097;28;19946;-65
2022/06/27 08:50:38;;;;;;;;;;;;;;;22.13;100.00;100095.53;5071245;28;20400;-65
2022/06/27 08:53:04;;;;;;;;;;;;;;;22.19;100.00;100100.47;5071003;28;19975;-65
2022/06/27 08:55:31;;;;;;;;;;;;;;;22.08;100.00;100095.03;5073289;28;19954;-65
2022/06/27 08:57:59;;;;;;;;;;;;;;;22.25;100.00;100091.88;5067233;28;20399;-65
2022/06/27 09:00:25;;;;;;;;;;;;;;;22.40;100.00;100101.50;5055014;28;19974;-65
2022/06/27 09:02:51;;;;;;;;;;;;;;;22.70;100.00;100109.88;5061105;28;19976;-65
2022/06/27 09:05:22;;;;;;;;;;;;;;;23.08;100.00;100094.06;5074693;28;20022;-65
2022/06/27 09:07:52;;;;;;;;;;;;;;;23.40;100.00;100092.28;5074659;28;19946;-65
2022/06/27 09:10:23;;;;;;;;;;;;;;;23.62;100.00;100093.19;5074497;28;19987;-65
2022/06/27 09:12:59;;;;;;;;;;;;;;;23.89;100.00;100101.69;5074617;28;19933;-65
2022/06/27 09:15:25;;;;;;;;;;;;;;;24.01;100.00;100106.09;5074431;28;19928;-65
2022/06/27 09:18:02;;;;;;;;;;;;;;;24.20;100.00;100123.41;5074372;28;19939;-65
2022/06/27 09:20:44;;;;;;;;;;;;;;;24.09;100.00;100119.88;5074741;28;19972;-65
2022/06/27 09:23:25;;;;;;;;;;;;;;;24.16;100.00;100137.41;5074254;28;20020;-65
2022/06/27 09:25:57;;;;;;;;;;;;;;;23.73;98.90;100145.59;5074652;28;20408;-65
2022/06/27 09:28:23;;;;;;;;;;;;;;;23.51;100.00;100147.56;5074075;28;20032;-65
2022/06/27 09:30:49;;;;;;;;;;;;;;;23.19;100.00;100161.91;5074227;28;19929;-65
2022/06/27 09:33:15;;;;;;;;;;;;;;;22.98;100.00;100158.22;5072689;28;20453;-65
2022/06/27 09:35:44;;;;;;;;;;;;;;;22.85;100.00;100168.31;5072843;28;19937;-65
2022/06/27 09:38:11;;;;;;;;;;;;;;;22.61;100.00;100180.28;5072849;28;20008;-65
2022/06/27 09:40:38;;;;;;;;;;;;;;;22.54;100.00;100190.75;5073641;28;19960;-65
2022/06/27 09:43:05;;;;;;;;;;;;;;;22.54;100.00;100204.31;5073471;28;20016;-65
2022/06/27 09:45:31;;;;;;;;;;;;;;;22.44;100.00;100205.13;5074051;28;19957;-65
2022/06/27 09:48:01;;;;;;;;;;;;;;;22.35;100.00;100205.84;5073641;28;19994;-65
2022/06/27 09:50:29;;;;;;;;;;;;;;;22.21;100.00;100198.75;5074014;28;19938;-65
2022/06/27 09:52:54;;;;;;;;;;;;;;;22.13;100.00;100202.09;5073910;28;19935;-66
2022/06/27 09:55:21;;;;;;;;;;;;;;;22.08;100.00;100192.56;5073785;28;20040;-64
2022/06/27 09:57:47;;;;;;;;;;;;;;;22.15;100.00;100174.88;5073741;28;19984;-64
2022/06/27 10:00:13;;;;;;;;;;;;;;;22.30;100.00;100175.50;5073191;28;19931;-65
2022/06/27 10:02:39;;;;;;;;;;;;;;;22.49;100.00;100178.53;5073514;28;19976;-65
2022/06/27 10:05:05;;;;;;;;;;;;;;;22.69;100.00;100191.38;5073839;28;20399;-65
2022/06/27 10:07:31;;;;;;;;;;;;;;;22.79;100.00;100193.25;5072510;28;20043;-66
2022/06/27 10:09:56;;;;;;;;;;;;;;;22.92;100.00;100196.69;5073800;28;20026;-66
2022/06/27 10:12:29;;;;;;;;;;;;;;;23.04;100.00;100211.13;5073457;28;19940;-65
2022/06/27 10:15:10;;;;;;;;;;;;;;;22.97;100.00;100210.75;5073396;28;19938;-66
2022/06/27 10:17:37;;;;;;;;;;;;;;;22.95;100.00;100220.88;5073315;28;20005;-64
2022/06/27 10:20:07;;;;;;;;;;;;;;;22.88;100.00;100222.34;5073453;28;19980;-63
2022/06/27 10:22:33;;;;;;;;;;;;;;;22.70;100.00;100233.81;5072846;28;19974;-63
2022/06/27 10:25:16;;;;;;;;;;;;;;;22.58;100.00;100235.63;5071585;28;19991;-63
2022/06/27 10:27:42;;;;;;;;;;;;;;;22.47;100.00;100235.53;5071314;28;20414;-63
2022/06/27 10:30:42;;;;;;;;;;;;;;;22.48;100.00;100234.59;5071491;28;19943;-63
2022/06/27 10:33:23;;;;;;;;;;;;;;;22.56;100.00;100234.88;5008978;28;19958;-63
2022/06/27 10:35:54;;;;;;;;;;;;;;;22.55;100.00;100235.88;5064385;28;19935;-63
2022/06/27 10:38:22;;;;;;;;;;;;;;;22.58;100.00;100235.63;5071751;28;19969;-63
2022/06/27 10:40:51;;;;;;;;;;;;;;;22.65;100.00;100234.13;5073063;28;19937;-63
2022/06/27 10:43:35;;;;;;;;;;;;;;;22.67;100.00;100234.06;5072299;28;19936;-63
2022/06/27 10:46:01;;;;;;;;;;;;;;;22.84;100.00;100237.16;5072482;28;20392;-63
2022/06/27 10:48:34;;;;;;;;;;;;;;;22.93;100.00;100236.41;5072579;28;19935;-63
2022/06/27 10:51:19;;;;;;;;;;;;;;;23.20;100.00;100223.34;5073015;28;20337;-63
2022/06/27 10:53:48;;;;;;;;;;;;;;;23.52;100.00;100219.88;5072538;28;20309;-63
2022/06/27 10:56:26;;;;;;;;;;;;;;;23.85;100.00;100226.09;5072758;28;19958;-63
2022/06/27 10:58:51;;;;;;;;;;;;;;;24.24;100.00;100230.03;5072484;28;20000;-64
2022/06/27 11:01:18;;;;;;;;;;;;;;;24.77;100.00;100226.28;5072452;28;20026;-65
2022/06/27 11:03:43;;;;;;;;;;;;;;;25.07;94.11;100222.72;5072306;28;20437;-65
2022/06/27 11:06:13;;;;;;;;;;;;;;;25.17;90.04;100227.19;5071840;28;19944;-65
2022/06/27 11:08:39;;;;;;;;;;;;;;;25.28;91.45;100218.06;5071812;28;19926;-65
2022/06/27 11:11:05;;;;;;;;;;;;;;;25.21;88.80;100217.75;5072381;28;20302;-63
2022/06/27 11:13:34;;;;;;;;;;;;;;;25.29;89.11;100222.50;5072099;28;19932;-63
2022/06/27 11:15:59;;;;;;;;;;;;;;;25.42;88.14;100207.69;5065124;28;19930;-63
2022/06/27 11:18:25;;;;;;;;;;;;;;;25.70;88.01;100212.34;5052305;28;19938;-62
2022/06/27 11:20:55;;;;;;;;;;;;;;;25.75;86.42;100210.03;5052270;28;19927;-62
2022/06/27 11:23:23;;;;;;;;;;;;;;;25.93;84.64;100219.25;5051923;28;19929;-62
2022/06/27 11:25:50;;;;;;;;;;;;;;;26.04;82.86;100214.69;5051989;28;19927;-62
2022/06/27 11:33:46;;;;;;;;;;;;;;;25.91;86.81;100215.78;5072217;28;19974;-62
2022/06/27 11:36:12;;;;;;;;;;;;;;;26.19;86.29;100218.72;5071763;28;19938;-62
2022/06/27 11:38:43;;;;;;;;;;;;;;;26.36;83.53;100212.56;5072088;28;19961;-62
2022/06/27 11:41:10;;;;;;;;;;;;;;;26.43;81.28;100221.84;5071766;28;19926;-62
2022/06/27 11:43:47;;;;;;;;;;;;;;;26.58;80.35;100198.56;5071619;28;19943;-62
2022/06/27 11:46:25;;;;;;;;;;;;;;;26.47;78.56;100202.34;5071814;28;19942;-62
2022/06/27 11:48:55;;;;;;;;;;;;;;;26.50;77.67;100206.63;5071433;28;19990;-63
2022/06/27 11:51:21;;;;;;;;;;;;;;;26.53;73.78;100214.53;5071601;28;19936;-63
2022/06/27 11:53:54;;;;;;;;;;;;;;;26.35;77.75;100214.41;5071416;28;19935;-63
2022/06/27 11:56:23;;;;;;;;;;;;;;;26.05;78.48;100200.91;5071223;28;19937;-63
2022/06/27 11:58:50;;;;;;;;;;;;;;;25.98;80.64;100207.06;5071547;28;19932;-63
2022/06/27 12:01:15;;;;;;;;;;;;;;;25.92;82.29;100203.91;5070864;28;19933;-64
2022/06/27 12:03:40;;;;;;;;;;;;;;;25.81;83.72;100198.56;5071287;28;19955;-64
2022/06/27 12:06:15;;;;;;;;;;;;;;;25.73;84.89;100209.31;5071570;28;20058;-64
2022/06/27 12:09:01;;;;;;;;;;;;;;;25.57;81.40;100217.19;5071537;28;19948;-64
2022/06/27 12:11:29;;;;;;;;;;;;;;;25.34;82.09;100207.47;5071524;28;20420;-64
2022/06/27 12:14:01;;;;;;;;;;;;;;;25.27;84.99;100205.47;5071178;28;19938;-64
2022/06/27 12:16:27;;;;;;;;;;;;;;;25.16;86.01;100206.41;5071569;28;19933;-63
2022/06/27 12:18:52;;;;;;;;;;;;;;;24.98;85.96;100224.38;5070950;28;20031;-63
2022/06/27 12:21:24;;;;;;;;;;;;;;;24.82;83.16;100228.59;5071259;28;19935;-63
2022/06/27 12:23:50;;;;;;;;;;;;;;;24.64;84.35;100225.59;5071334;28;20429;-63
2022/06/27 12:26:15;;;;;;;;;;;;;;;24.52;85.77;100227.53;5071318;28;20012;-63
2022/06/27 12:28:41;;;;;;;;;;;;;;;24.35;88.26;100240.84;5071728;28;19929;-63
2022/06/27 12:31:06;;;;;;;;;;;;;;;24.13;89.62;100246.41;5077662;28;19929;-63
2022/06/27 12:33:32;;;;;;;;;;;;;;;23.99;92.87;100228.53;5078062;28;19944;-63
2022/06/27 12:35:57;;;;;;;;;;;;;;;24.03;95.34;100215.53;5077730;28;19941;-63
2022/06/27 12:38:22;;;;;;;;;;;;;;;24.05;96.54;100216.28;5077331;28;20305;-63
2022/06/27 12:40:48;;;;;;;;;;;;;;;24.19;98.51;100215.97;5077506;28;19930;-63